Time;durP1;ratioP1;P1;durP2;ratioP2;P2;SDS_P1;SDS_P2;PMS_P1;PMS_P2;Temp;Humidity;BMP_temperature;BMP_pressure;BME280_temperature;BME280_humidity;BME280_pressure;Samples;Min_cycle;Max_cycle;Signal;HPM_P1;HPM_P2
2021/10/28 00:12:17;;;;;;;20.20;10.77;;;;;;;12.51;91.15;101548.47;5130411;27;20050;-78
2021/10/28 00:14:45;;;;;;;20.85;10.70;;;;;;;12.54;91.47;101550.81;5113094;27;20346;-78
2021/10/28 00:17:12;;;;;;;16.88;10.80;;;;;;;12.50;91.67;101545.94;5130123;27;20125;-78
2021/10/28 00:19:40;;;;;;;18.42;11.02;;;;;;;12.55;91.72;101555.22;5113471;27;20142;-78
2021/10/28 00:22:07;;;;;;;19.02;11.30;;;;;;;12.47;92.01;101549.78;5113024;27;20368;-78
2021/10/28 00:24:33;;;;;;;16.35;10.57;;;;;;;12.48;92.02;101554.16;5131097;27;20477;-79
2021/10/28 00:26:58;;;;;;;19.20;11.27;;;;;;;12.49;92.32;101545.09;5130262;27;20119;-77
2021/10/28 00:29:26;;;;;;;21.13;10.73;;;;;;;12.46;92.62;101551.63;5131193;27;20295;-78
2021/10/28 00:31:55;;;;;;;19.33;11.18;;;;;;;12.45;93.12;101552.63;5130154;27;20452;-77
2021/10/28 00:34:20;;;;;;;21.85;12.93;;;;;;;12.41;93.62;101555.75;5112508;27;20027;-78
2021/10/28 00:36:47;;;;;;;20.90;12.13;;;;;;;12.35;93.82;101551.00;5112943;27;20038;-77
2021/10/28 00:39:15;;;;;;;21.60;11.15;;;;;;;12.26;94.43;101544.75;5130177;27;20133;-77
2021/10/28 00:41:40;;;;;;;18.58;11.25;;;;;;;12.26;94.75;101544.75;5130012;27;20161;-78
2021/10/28 00:44:07;;;;;;;22.02;12.85;;;;;;;12.33;94.73;101555.69;5129555;27;20087;-78
2021/10/28 00:46:36;;;;;;;17.45;10.70;;;;;;;12.32;95.02;101559.38;5113010;27;20096;-78
2021/10/28 00:49:04;;;;;;;21.33;12.82;;;;;;;12.28;94.84;101556.13;5131045;27;20095;-78
2021/10/28 00:51:31;;;;;;;20.98;11.38;;;;;;;12.25;95.57;101557.28;5130877;27;20023;-78
2021/10/28 00:53:58;;;;;;;20.23;12.48;;;;;;;12.30;95.14;101562.19;5130040;27;20451;-78
2021/10/28 00:56:26;;;;;;;20.02;11.20;;;;;;;12.27;95.66;101553.59;5129742;27;20031;-78
2021/10/28 00:58:52;;;;;;;27.90;13.27;;;;;;;12.25;95.92;101559.13;5112393;27;20119;-78
2021/10/28 01:01:18;;;;;;;24.17;12.43;;;;;;;12.21;95.98;101558.59;5130714;27;20049;-79
2021/10/28 01:03:45;;;;;;;21.30;12.68;;;;;;;12.19;96.15;101557.06;5129078;27;20066;-78
2021/10/28 01:06:12;;;;;;;23.35;11.95;;;;;;;12.28;96.49;101557.97;5130784;27;20353;-77
2021/10/28 01:08:42;;;;;;;17.48;10.88;;;;;;;12.22;96.09;101557.59;5112227;27;20519;-77
2021/10/28 01:11:08;;;;;;;25.55;12.55;;;;;;;12.22;96.24;101559.41;5130045;27;20503;-78
2021/10/28 01:13:34;;;;;;;22.75;11.73;;;;;;;12.16;96.28;101555.53;5129367;27;20099;-78
2021/10/28 01:16:01;;;;;;;19.75;11.43;;;;;;;12.19;96.52;101563.25;5130317;27;20107;-78
2021/10/28 01:18:28;;;;;;;22.63;13.10;;;;;;;12.25;96.05;101559.97;5112317;27;20450;-78
2021/10/28 01:20:55;;;;;;;24.95;12.40;;;;;;;12.15;96.25;101553.88;5110784;27;20027;-78
2021/10/28 01:23:23;;;;;;;28.92;14.38;;;;;;;12.10;96.23;101544.59;5129838;27;20027;-77
2021/10/28 01:25:54;;;;;;;26.05;13.02;;;;;;;12.03;96.56;101547.91;5130365;27;20077;-78
2021/10/28 01:28:22;;;;;;;22.42;13.85;;;;;;;12.12;96.41;101556.00;5129281;27;20035;-78
2021/10/28 01:30:50;;;;;;;23.42;13.77;;;;;;;12.10;96.04;101561.50;5130200;27;20031;-79
2021/10/28 01:33:17;;;;;;;27.23;14.25;;;;;;;12.13;95.57;101566.56;5129745;27;20038;-78
2021/10/28 01:35:43;;;;;;;22.77;13.52;;;;;;;12.11;95.53;101548.97;5129980;27;20485;-77
2021/10/28 01:38:11;;;;;;;21.65;12.13;;;;;;;12.10;95.64;101542.75;5129052;27;20071;-78
2021/10/28 01:40:37;;;;;;;23.85;13.55;;;;;;;12.13;95.70;101545.16;5128980;27;20133;-78
2021/10/28 01:43:03;;;;;;;;;;;;;;;12.10;95.70;101539.25;5112129;27;20119;-78
2021/10/28 01:45:29;;;;;;;;;;;;;;;12.12;95.75;101540.75;5111973;27;19912;-78
2021/10/28 01:47:54;;;;;;;23.33;13.23;;;;;;;12.06;95.70;101536.03;5128622;27;20124;-78
2021/10/28 01:50:20;;;;;;;25.33;14.30;;;;;;;12.02;95.97;101534.66;5129592;27;20035;-78
2021/10/28 01:52:46;;;;;;;27.23;15.07;;;;;;;12.02;96.13;101534.66;5128763;27;20114;-77
2021/10/28 01:55:12;;;;;;;26.23;14.43;;;;;;;12.03;95.30;101529.16;5128098;27;20053;-78
2021/10/28 01:57:41;;;;;;;29.45;14.80;;;;;;;12.06;94.42;101527.16;5128605;27;20483;-77
2021/10/28 02:00:15;;;;;;;27.40;14.95;;;;;;;11.95;95.32;101520.22;5128574;27;20092;-78
2021/10/28 02:02:42;;;;;;;19.48;13.75;;;;;;;11.99;95.84;101525.09;5111605;27;20062;-78
2021/10/28 02:05:11;;;;;;;25.23;14.10;;;;;;;11.93;95.79;101519.50;5094251;27;20087;-78
2021/10/28 02:07:36;;;;;;;22.90;13.15;;;;;;;11.89;96.20;101518.97;5128323;27;20528;-78
2021/10/28 02:10:07;;;;;;;25.92;14.13;;;;;;;11.89;96.67;101526.16;5128584;27;20126;-78
2021/10/28 02:12:34;;;;;;;23.95;14.48;;;;;;;11.92;96.89;101528.56;5128484;27;20046;-78
2021/10/28 02:15:00;;;;;;;25.55;15.10;;;;;;;11.90;97.05;101536.72;5110802;27;20046;-78
2021/10/28 02:17:26;;;;;;;26.63;14.45;;;;;;;11.81;97.24;101535.75;5128302;27;20035;-78
2021/10/28 02:19:51;;;;;;;31.00;15.52;;;;;;;11.71;97.49;101523.44;5129176;27;20062;-78
2021/10/28 02:22:17;;;;;;;26.43;15.37;;;;;;;11.79;97.54;101532.38;5128187;27;20504;-78
2021/10/28 02:24:43;;;;;;;26.77;13.63;;;;;;;11.78;97.16;101530.72;5128658;27;20031;-78
2021/10/28 02:27:08;;;;;;;32.05;16.35;;;;;;;11.74;96.98;101526.66;5110749;27;20796;-78
2021/10/28 02:29:33;;;;;;;28.50;15.83;;;;;;;11.81;97.08;101537.59;5110675;27;20051;-78
2021/10/28 02:31:59;;;;;;;27.30;15.97;;;;;;;11.65;97.37;101524.88;5110842;27;20054;-78
2021/10/28 02:34:26;;;;;;;28.52;15.35;;;;;;;11.55;97.88;101524.94;5110412;27;20375;-79
2021/10/28 02:36:52;;;;;;;29.23;16.27;;;;;;;11.57;98.30;101538.19;5128761;27;20046;-78
2021/10/28 02:39:17;;;;;;;29.80;16.83;;;;;;;11.55;98.59;101540.16;5129068;27;20027;-78
2021/10/28 02:41:43;;;;;;;29.35;16.15;;;;;;;11.55;98.63;101550.84;5110549;27;20499;-78
2021/10/28 02:44:10;;;;;;;31.80;17.48;;;;;;;11.56;98.62;101553.34;5128302;27;20088;-77
2021/10/28 02:46:36;;;;;;;;;;;;;;;11.54;98.32;101543.81;5111038;27;20031;-79
2021/10/28 02:49:02;;;;;;;29.75;17.27;;;;;;;11.48;98.54;101547.09;5128499;27;19911;-78
2021/10/28 02:51:28;;;;;;;30.25;17.23;;;;;;;11.54;98.69;101555.38;5127449;27;20039;-78
2021/10/28 02:53:53;;;;;;;28.70;17.65;;;;;;;11.54;98.72;101554.50;5127001;27;20043;-78
2021/10/28 02:56:19;;;;;;;33.83;18.40;;;;;;;11.52;98.78;101548.44;5128639;27;20019;-78
2021/10/28 02:58:45;;;;;;;32.97;17.20;;;;;;;11.51;98.79;101552.13;5128491;27;20027;-78
2021/10/28 03:01:10;;;;;;;31.00;17.87;;;;;;;11.50;98.80;101550.47;5128556;27;20352;-77
2021/10/28 03:03:38;;;;;;;34.00;19.60;;;;;;;11.55;98.44;101550.84;5127140;27;20027;-78
2021/10/28 03:06:04;;;;;;;35.20;19.40;;;;;;;11.51;97.99;101546.78;5128243;27;20121;-78
2021/10/28 03:08:31;;;;;;;40.00;21.25;;;;;;;11.52;97.78;101541.28;5128051;27;20057;-78
2021/10/28 03:10:57;;;;;;;31.40;19.40;;;;;;;11.52;97.30;101532.41;5110195;27;20042;-78
2021/10/28 03:13:22;;;;;;;36.00;20.20;;;;;;;11.49;97.36;101530.03;5127092;27;20027;-78
2021/10/28 03:15:49;;;;;;;38.10;20.97;;;;;;;11.46;97.40;101522.31;5128412;27;20084;-78
2021/10/28 03:26:10;;;;;;;34.58;20.90;;;;;;;11.44;97.24;101518.97;5127150;28;20045;-79
2021/10/28 03:28:35;;;;;;;37.37;21.63;;;;;;;11.45;97.45;101528.66;5127031;28;20031;-79
2021/10/28 03:31:01;;;;;;;33.80;20.73;;;;;;;11.48;98.22;101539.91;5109918;28;20507;-78
2021/10/28 03:33:27;;;;;;;38.33;22.00;;;;;;;11.38;98.19;101528.44;5126924;28;20046;-79
2021/10/28 03:35:53;;;;;;;41.53;22.67;;;;;;;11.35;98.83;101531.38;5129274;27;20035;-78
2021/10/28 03:38:23;;;;;;;37.50;21.55;;;;;;;11.27;99.49;101540.16;5131218;27;20046;-79
2021/10/28 03:43:45;;;;;;;40.17;21.85;;;;;;;11.23;100.00;101560.13;5130749;27;20035;-78
2021/10/28 03:49:05;;;;;;;43.38;25.52;;;;;;;11.12;100.00;101553.16;5132067;27;20068;-79
2021/10/28 03:52:07;;;;;;;39.70;22.92;;;;;;;11.17;100.00;101566.91;5131839;27;20388;-78
2021/10/28 03:54:51;;;;;;;35.35;21.42;;;;;;;11.20;100.00;101568.47;5113096;27;20027;-78
2021/10/28 03:57:51;;;;;;;42.17;22.58;;;;;;;11.18;100.00;101567.75;5130651;27;20073;-77
2021/10/28 04:05:32;;;;;;;39.63;21.98;;;;;;;11.10;99.91;101549.78;5130453;27;20384;-77
2021/10/28 04:28:53;;;;;;;43.17;21.52;;;;;;;11.06;98.67;101518.16;5131617;27;20253;-78
2021/10/28 04:29:51;;;;;;;39.25;22.50;;;;;;;11.00;97.98;101511.56;5131247;27;20113;-78
2021/10/28 04:32:17;;;;;;;35.28;20.85;;;;;;;11.03;98.35;101523.78;5130402;27;20035;-78
2021/10/28 04:34:44;;;;;;;37.78;23.92;;;;;;;10.92;98.14;101508.78;5130198;27;20730;-78
2021/10/28 04:37:10;;;;;;;40.45;23.88;;;;;;;10.93;98.35;101518.47;5112815;27;20031;-78
2021/10/28 04:39:36;;;;;;;42.17;22.52;;;;;;;10.83;98.35;101501.66;5112972;27;20023;-78
2021/10/28 04:42:02;;;;;;;46.30;22.77;;;;;;;10.87;98.32;101509.22;5112755;27;20035;-77
2021/10/28 04:44:28;;;;;;;40.15;22.73;;;;;;;10.95;98.21;101532.53;5130446;27;20031;-77
2021/10/28 04:46:53;;;;;;;44.67;22.27;;;;;;;10.92;98.05;101512.28;5132307;27;20050;-77
2021/10/28 04:49:19;;;;;;;39.97;23.00;;;;;;;10.79;98.70;101509.09;5131181;27;20027;-77
2021/10/28 04:51:45;;;;;;;38.75;22.73;;;;;;;10.79;98.37;101503.75;5132294;27;20582;-78
2021/10/28 04:54:11;;;;;;;43.83;23.67;;;;;;;10.72;99.10;101510.66;5113541;27;20052;-78
2021/10/28 04:56:38;;;;;;;39.65;21.95;;;;;;;10.76;98.92;101530.75;5114452;27;20150;-77
2021/10/28 04:59:04;;;;;;;38.85;23.75;;;;;;;10.74;98.91;101530.91;5131381;27;20062;-78
2021/10/28 05:01:30;;;;;;;42.40;23.48;;;;;;;10.77;98.78;101524.44;5097024;27;20023;-78
2021/10/28 05:03:55;;;;;;;41.03;24.45;;;;;;;10.70;98.82;101516.16;5113213;27;20104;-78
2021/10/28 05:06:21;;;;;;;42.22;24.77;;;;;;;10.78;98.61;101516.28;5131908;27;20617;-78
2021/10/28 05:08:47;;;;;;;42.60;23.27;;;;;;;10.69;98.70;101510.97;5131864;27;20035;-78
2021/10/28 05:11:17;;;;;;;41.57;24.10;;;;;;;10.66;98.45;101514.75;5130674;27;20876;-78
2021/10/28 05:13:43;;;;;;;43.88;24.98;;;;;;;10.63;98.97;101514.19;5113578;27;20035;-78
2021/10/28 05:16:08;;;;;;;46.85;26.02;;;;;;;10.65;99.00;101529.13;5131914;27;20031;-78
2021/10/28 05:18:39;;;;;;;46.08;26.92;;;;;;;10.56;99.29;101530.81;5130680;27;20081;-78
2021/10/28 05:21:10;;;;;;;49.83;28.10;;;;;;;10.52;99.55;101529.41;5131711;27;20038;-77
2021/10/28 05:23:36;;;;;;;45.83;27.27;;;;;;;10.51;99.80;101525.06;5113455;27;20095;-77
2021/10/28 05:26:02;;;;;;;;;;;;;;;10.52;100.00;101534.75;5131618;27;20436;-78
2021/10/28 05:28:27;;;;;;;49.08;25.95;;;;;;;10.39;99.98;101526.19;5131838;27;19923;-78
2021/10/28 05:30:53;;;;;;;52.30;28.07;;;;;;;10.43;100.00;101532.94;5113466;27;20389;-78
2021/10/28 05:33:18;;;;;;;53.67;26.23;;;;;;;10.39;100.00;101528.00;5113409;27;20110;-78
2021/10/28 05:35:44;;;;;;;47.03;25.90;;;;;;;10.41;100.00;101537.56;5113365;27;20023;-78
2021/10/28 05:38:09;;;;;;;46.33;27.08;;;;;;;10.44;100.00;101545.31;5131557;27;20432;-78
2021/10/28 05:40:35;;;;;;;46.53;27.38;;;;;;;10.33;100.00;101532.94;5130257;27;20031;-79
2021/10/28 05:43:01;;;;;;;48.97;28.37;;;;;;;10.26;100.00;101522.94;5113386;27;20035;-78
2021/10/28 05:45:28;;;;;;;50.28;28.60;;;;;;;10.27;100.00;101544.13;5129916;27;20331;-78
2021/10/28 05:47:53;;;;;;;46.58;26.85;;;;;;;10.26;100.00;101546.97;5130252;27;20051;-77
2021/10/28 05:50:21;;;;;;;47.17;26.17;;;;;;;10.30;100.00;101543.03;5131082;27;20035;-78
2021/10/28 05:52:48;;;;;;;50.03;27.10;;;;;;;10.34;100.00;101549.78;5130262;27;20038;-78
2021/10/28 05:55:15;;;;;;;53.00;28.58;;;;;;;10.32;100.00;101544.63;5112428;27;20482;-79
2021/10/28 05:57:40;;;;;;;50.22;28.00;;;;;;;10.25;100.00;101539.94;5129014;27;20015;-80
2021/10/28 06:00:08;;;;;;;51.80;29.08;;;;;;;10.22;100.00;101548.22;5111377;27;20331;-78
2021/10/28 06:02:37;;;;;;;54.70;29.67;;;;;;;10.23;100.00;101561.44;5128728;27;20031;-79
2021/10/28 06:05:04;;;;;;;50.70;28.13;;;;;;;10.23;100.00;101558.78;5128319;27;20199;-78
2021/10/28 06:07:29;;;;;;;53.25;27.65;;;;;;;10.26;100.00;101568.31;5131136;27;20102;-79
2021/10/28 06:09:55;;;;;;;51.45;28.83;;;;;;;10.24;100.00;101562.28;5130814;27;20436;-77
2021/10/28 06:12:21;;;;;;;50.33;27.83;;;;;;;10.26;100.00;101573.66;5130707;27;20481;-79
2021/10/28 06:14:46;;;;;;;55.90;28.15;;;;;;;10.23;100.00;101557.91;5130335;27;20444;-80
2021/10/28 06:17:14;;;;;;;52.23;28.20;;;;;;;10.27;100.00;101576.16;5112572;27;20038;-77
2021/10/28 06:19:40;;;;;;;52.65;28.13;;;;;;;10.33;100.00;101580.16;5129312;27;20599;-78
2021/10/28 06:22:06;;;;;;;52.50;26.95;;;;;;;10.34;100.00;101560.47;5130444;27;20459;-79
2021/10/28 06:24:32;;;;;;;53.80;30.00;;;;;;;10.30;100.00;101553.72;5130449;27;20035;-78
2021/10/28 06:26:57;;;;;;;54.50;28.05;;;;;;;10.28;100.00;101558.34;5129608;27;20035;-78
2021/10/28 06:29:23;;;;;;;47.57;26.90;;;;;;;10.32;100.00;101573.97;5112481;27;20512;-79
2021/10/28 06:31:49;;;;;;;53.80;28.65;;;;;;;10.37;100.00;101573.53;5129508;27;20045;-78
2021/10/28 06:34:25;;;;;;;56.00;28.95;;;;;;;10.42;100.00;101581.97;5111892;27;20035;-77
2021/10/28 06:36:51;;;;;;;59.83;28.58;;;;;;;10.37;100.00;101581.53;5130323;27;20131;-79
2021/10/28 06:39:17;;;;;;;50.90;25.50;;;;;;;10.51;100.00;101594.47;5130344;27;20039;-78
2021/10/28 06:41:43;;;;;;;49.05;27.33;;;;;;;10.55;100.00;101587.84;5129334;27;20047;-78
2021/10/28 06:44:10;;;;;;;57.03;27.30;;;;;;;10.54;100.00;101591.53;5111978;27;20115;-78
2021/10/28 06:46:35;;;;;;;50.97;26.67;;;;;;;10.57;100.00;101588.56;5112138;27;20057;-78
2021/10/28 06:49:05;;;;;;;52.90;25.58;;;;;;;10.59;100.00;101603.63;5129924;27;20027;-79
2021/10/28 06:51:36;;;;;;;48.72;25.75;;;;;;;10.64;100.00;101598.69;5129646;27;20396;-78
2021/10/28 06:54:07;;;;;;;50.03;24.13;;;;;;;10.67;100.00;101601.06;5129427;27;20168;-78
2021/10/28 07:04:36;;;;;;;53.85;25.80;;;;;;;10.65;100.00;101611.91;5128820;27;20050;-78
2021/10/28 07:07:02;;;;;;;49.27;24.27;;;;;;;10.65;100.00;101616.38;5129823;27;20019;-77
2021/10/28 07:12:15;;;;;;;48.63;23.23;;;;;;;10.63;100.00;101607.66;5128955;27;20038;-77
2021/10/28 07:14:45;;;;;;;37.75;21.30;;;;;;;10.57;100.00;101603.75;5128690;27;20035;-80
2021/10/28 07:25:20;;;;;;;36.90;21.10;;;;;;;11.15;100.00;101589.44;5129234;27;20114;-79
2021/10/28 07:30:42;;;;;;;39.22;20.50;;;;;;;11.18;97.22;101538.34;5129559;28;20050;-78
2021/10/28 08:00:20;;;;;;;23.25;13.23;;;;;;;13.73;83.78;101563.56;5129162;28;20085;-78
2021/10/28 08:21:32;;;;;;;27.65;12.93;;;;;;;13.93;79.63;101513.13;5129011;27;20039;-79
2021/10/28 08:24:17;;;;;;;20.70;11.63;;;;;;;13.85;80.63;101508.56;5131054;27;20518;-78
2021/10/28 08:29:35;;;;;;;26.80;11.80;;;;;;;14.38;77.37;101481.41;5131149;27;20468;-79
2021/10/28 08:32:03;;;;;;;24.95;11.30;;;;;;;14.49;77.15;101491.78;5113043;27;20454;-78
2021/10/28 08:34:33;;;;;;;17.25;9.73;;;;;;;15.15;76.04;101511.31;5112391;27;20027;-79
2021/10/28 08:37:07;;;;;;;21.45;11.45;;;;;;;15.04;75.52;101487.50;5131045;27;20452;-79
2021/10/28 08:39:38;;;;;;;22.25;10.57;;;;;;;15.16;75.45;101480.72;5131329;27;20043;-79
2021/10/28 08:42:09;;;;;;;21.17;9.18;;;;;;;15.40;74.20;101480.63;5112767;27;20066;-78
2021/10/28 08:44:39;;;;;;;15.10;8.43;;;;;;;15.93;73.54;101506.88;5112526;27;20443;-79
2021/10/28 08:47:07;;;;;;;20.77;10.13;;;;;;;16.05;70.73;101454.28;5112565;27;20045;-81
2021/10/28 08:49:38;;;;;;;16.70;9.13;;;;;;;15.25;73.74;101449.25;5131605;27;20073;-79
2021/10/28 09:25:34;;;;;;;14.00;8.95;;;;;;;15.47;73.67;101432.28;5129046;27;20536;-77
2021/10/28 09:28:14;;;;;;;14.43;9.10;;;;;;;14.82;73.68;101373.47;5128558;27;20042;-77
2021/10/28 09:30:49;;;;;;;12.68;7.65;;;;;;;16.04;72.06;101439.16;5128760;27;20468;-78
2021/10/28 09:33:27;;;;;;;18.52;9.07;;;;;;;15.25;72.27;101369.38;5127753;27;20539;-79
2021/10/28 09:36:10;;;;;;;15.93;8.75;;;;;;;14.49;75.82;101384.31;5111755;27;20051;-77
2021/10/28 09:44:45;;;;;;;16.38;9.00;;;;;;;15.06;75.51;101424.47;5129267;27;20125;-78
2021/10/28 09:48:03;;;;;;;14.43;7.93;;;;;;;14.90;75.71;101416.47;5111106;27;20114;-78
2021/10/28 09:50:38;;;;;;;14.90;8.40;;;;;;;14.92;74.90;101387.56;5128523;27;20122;-76
2021/10/28 09:53:24;;;;;;;12.35;7.78;;;;;;;15.60;74.20;101443.31;5094696;27;20341;-76
2021/10/28 09:58:26;;;;;;;16.50;7.55;;;;;;;15.47;73.27;101378.47;5128576;27;20035;-76
2021/10/28 10:00:53;;;;;;;12.85;7.00;;;;;;;15.69;73.83;101430.63;5111365;27;20447;-78
2021/10/28 10:03:27;;;;;;;16.55;8.05;;;;;;;15.11;73.94;101384.41;5111027;27;20023;-76
2021/10/28 10:06:02;;;;;;;12.38;6.97;;;;;;;16.22;72.59;101446.88;5128185;27;20038;-76
2021/10/28 10:08:28;;;;;;;10.70;6.68;;;;;;;16.16;71.78;101410.75;5129224;27;20046;-76
2021/10/28 10:10:57;;;;;;;10.43;6.93;;;;;;;15.90;72.03;101375.31;5129234;27;20040;-76
2021/10/28 10:13:25;;;;;;;15.32;7.68;;;;;;;15.38;72.85;101347.25;5112310;27;20039;-77
2021/10/28 10:16:00;;;;;;;12.85;7.50;;;;;;;15.94;72.79;101417.81;5129635;27;20102;-76
2021/10/28 10:18:27;;;;;;;12.13;7.23;;;;;;;16.09;72.56;101427.84;5112642;27;20042;-76
2021/10/28 10:20:58;;;;;;;10.43;6.00;;;;;;;16.60;71.28;101430.66;5129254;27;20039;-79
2021/10/28 10:26:33;;;;;;;13.30;6.93;;;;;;;15.83;72.55;101380.59;5130216;27;20035;-75
2021/10/28 11:03:09;;;;;;;13.13;6.75;;;;;;;17.61;68.70;101431.75;5110721;27;20593;-76
2021/10/28 11:30:11;;;;;;;7.50;5.00;;;;;;;17.31;68.52;101355.44;5129833;28;20034;-76
2021/10/28 12:47:30;;;;;;;5.80;2.80;;;;;;;19.29;62.23;101180.94;5131182;27;20377;-77
2021/10/28 12:50:26;;;;;;;4.25;2.65;;;;;;;18.52;63.06;101125.53;5112849;27;20026;-77
2021/10/28 13:03:48;;;;;;;4.43;2.60;;;;;;;17.93;64.39;101118.91;5112268;27;20031;-77
2021/10/28 13:06:40;;;;;;;7.93;2.28;;;;;;;18.68;63.21;101167.56;5129819;27;20031;-77
2021/10/28 13:53:04;;;;;;;6.60;2.25;;;;;;;17.91;66.15;101100.22;5129471;27;20042;-76
2021/10/28 13:55:51;;;;;;;5.28;2.55;;;;;;;17.52;67.22;101103.53;5129140;27;20084;-76
2021/10/28 14:18:14;;;;;;;4.10;2.55;;;;;;;17.05;69.30;101115.91;5129169;27;20035;-76
2021/10/28 14:20:47;;;;;;;5.85;2.70;;;;;;;16.69;69.59;101079.06;5110617;27;20459;-77
2021/10/28 14:26:06;;;;;;;6.95;2.63;;;;;;;16.44;71.00;101094.84;5110617;27;20099;-77
2021/10/28 14:34:36;;;;;;;4.10;2.25;;;;;;;15.93;71.72;101087.66;5110550;27;20039;-78
2021/10/28 14:58:58;;;;;;;5.50;3.00;;;;;;;14.96;76.27;101101.19;5110310;27;20096;-80
2021/10/28 15:01:56;;;;;;;5.07;3.35;;;;;;;14.83;77.20;101114.44;5128430;27;20027;-81
2021/10/28 15:36:58;;;;;;;3.30;2.60;;;;;;;14.22;80.71;101119.72;5128464;28;20426;-85
2021/10/28 15:39:38;;;;;;;4.43;2.45;;;;;;;14.05;81.11;101106.38;5093547;28;20448;-84
2021/10/28 15:42:29;;;;;;;5.63;2.78;;;;;;;14.05;81.44;101114.44;5110374;28;20066;-85
2021/10/28 15:51:03;;;;;;;6.25;3.28;;;;;;;13.61;82.90;101100.72;5127709;28;20179;-83
2021/10/28 16:22:49;;;;;;;5.82;2.95;;;;;;;12.80;86.53;101118.63;5110596;28;20116;-85
2021/10/28 16:25:15;;;;;;;5.18;3.30;;;;;;;12.72;86.49;101110.59;5129099;28;20035;-84
2021/10/28 16:27:40;;;;;;;5.50;3.33;;;;;;;12.74;86.92;101119.31;5129021;28;20084;-86
2021/10/28 16:30:08;;;;;;;6.40;3.20;;;;;;;12.68;86.61;101102.88;5128130;28;20658;-83
2021/10/28 16:32:33;;;;;;;7.00;3.75;;;;;;;12.54;86.94;101097.34;5111339;28;20574;-82
2021/10/28 16:35:00;;;;;;;7.55;3.17;;;;;;;12.45;87.43;101108.06;5128040;28;20042;-84
2021/10/28 16:37:28;;;;;;;;;;;;;;;12.37;88.24;101112.56;5111988;28;20041;-81
2021/10/28 16:39:53;;;;;;;5.18;3.38;;;;;;;12.22;88.48;101097.16;5128170;28;19984;-83
2021/10/28 16:42:20;;;;;;;6.07;3.90;;;;;;;12.21;88.56;101106.19;5130511;27;20444;-83
2021/10/28 16:44:45;;;;;;;7.30;3.40;;;;;;;12.01;88.70;101100.28;5132549;27;20299;-83
2021/10/28 16:47:13;;;;;;;10.30;4.68;;;;;;;11.86;90.59;101101.88;5131578;27;20035;-83
2021/10/28 16:49:39;;;;;;;6.30;3.90;;;;;;;11.84;90.89;101107.38;5132359;27;20058;-82
2021/10/28 16:52:05;;;;;;;5.13;4.05;;;;;;;11.71;91.11;101092.81;5114444;27;20035;-82
2021/10/28 16:54:33;;;;;;;7.40;3.50;;;;;;;11.58;91.56;101087.91;5131832;27;20027;-78
2021/10/28 16:56:59;;;;;;;11.73;5.43;;;;;;;11.73;91.92;101109.50;5131017;27;20074;-79
2021/10/28 16:59:25;;;;;;;;;;;;;;;11.95;92.42;101134.88;5131481;27;20098;-79
2021/10/28 17:01:50;;;;;;;;;;;;;;;11.99;92.67;101150.47;5114147;27;19915;-79
2021/10/28 17:04:16;;;;;;;6.80;5.00;;;;;;;11.91;92.91;101141.56;5113281;27;19971;-79
2021/10/28 17:06:41;;;;;;;10.33;6.87;;;;;;;11.89;93.58;101149.72;5113613;27;20129;-80
2021/10/28 17:09:08;;;;;;;9.60;7.40;;;;;;;11.93;93.71;101156.44;5130891;27;20039;-79
2021/10/28 17:11:38;;;;;;;16.08;7.13;;;;;;;11.78;94.21;101132.13;5130869;27;20415;-79
2021/10/28 17:14:05;;;;;;;18.77;8.10;;;;;;;11.84;94.81;101152.03;5131438;27;20095;-79
2021/10/28 17:16:32;;;;;;;12.80;9.18;;;;;;;11.76;95.30;101158.19;5131530;27;20475;-79
2021/10/28 17:18:58;;;;;;;12.70;8.48;;;;;;;11.87;94.99;101164.25;5130476;27;20436;-79
2021/10/28 17:21:23;;;;;;;14.27;8.52;;;;;;;11.89;94.86;101154.25;5113217;27;20079;-78
2021/10/28 17:23:58;;;;;;;15.90;9.38;;;;;;;11.77;94.91;101143.78;5131178;27;20456;-79
2021/10/28 17:26:24;;;;;;;14.98;8.90;;;;;;;11.78;95.65;101156.19;5128984;27;20050;-79
2021/10/28 17:28:50;;;;;;;13.65;8.05;;;;;;;11.76;95.63;101158.19;5130687;27;20035;-79
2021/10/28 17:31:15;;;;;;;12.07;8.07;;;;;;;11.76;95.65;101166.22;5112428;27;20034;-78
2021/10/28 17:33:40;;;;;;;15.60;8.60;;;;;;;11.74;95.62;101168.19;5128795;27;20027;-79
2021/10/28 17:36:06;;;;;;;16.03;8.97;;;;;;;11.67;95.93;101174.34;5111110;27;20126;-79
2021/10/28 17:38:33;;;;;;;17.55;9.48;;;;;;;11.64;96.11;101167.50;5128215;27;20501;-79
2021/10/28 17:41:00;;;;;;;38.03;19.00;;;;;;;11.62;96.30;101170.31;5110916;27;20062;-80
2021/10/28 17:43:29;;;;;;;19.90;11.55;;;;;;;11.61;96.37;101171.31;5110733;27;20050;-80
2021/10/28 17:45:57;;;;;;;15.23;9.43;;;;;;;11.55;96.31;101160.41;5110793;27;20484;-79
2021/10/28 17:48:23;;;;;;;17.95;10.27;;;;;;;11.49;96.91;101164.53;5110791;27;20410;-79
2021/10/28 17:50:49;;;;;;;;;;;;;;;11.47;97.39;101163.91;5111416;27;20238;-79
2021/10/28 17:53:14;;;;;;;;;;;;;;;11.40;97.50;101169.03;5127596;27;19998;-79
2021/10/28 17:55:40;;;;;;;13.87;9.47;;;;;;;11.29;98.10;101158.59;5128000;27;19911;-79
2021/10/28 17:58:06;;;;;;;20.10;10.33;;;;;;;11.34;98.15;101177.66;5128698;27;20027;-79
2021/10/28 18:00:33;;;;;;;19.08;10.70;;;;;;;11.29;98.49;101168.47;5127880;27;20280;-79
2021/10/28 18:02:59;;;;;;;20.13;10.95;;;;;;;11.18;98.54;101167.69;5128640;27;20027;-79
2021/10/28 18:05:25;;;;;;;21.88;11.73;;;;;;;11.19;99.26;101168.53;5110188;27;20031;-78
2021/10/28 18:07:50;;;;;;;20.53;11.60;;;;;;;11.24;99.56;101182.28;5110602;27;20091;-79
2021/10/28 18:10:16;;;;;;;24.73;13.13;;;;;;;11.24;99.11;101184.97;5128768;27;20299;-79
2021/10/28 18:12:42;;;;;;;21.50;10.98;;;;;;;11.16;99.27;101175.03;5093245;27;20039;-78
2021/10/28 18:15:09;;;;;;;20.58;11.57;;;;;;;11.15;99.67;101177.88;5110437;27;20049;-78
2021/10/28 18:17:35;;;;;;;17.33;12.00;;;;;;;11.16;99.29;101172.34;5128642;27;20039;-78
2021/10/28 18:20:03;;;;;;;22.17;12.60;;;;;;;11.08;99.56;101163.47;5110481;27;20416;-78
2021/10/28 18:22:30;;;;;;;20.85;12.27;;;;;;;11.14;99.81;101176.19;5110613;27;20035;-78
2021/10/28 18:24:57;;;;;;;20.58;13.18;;;;;;;11.17;99.73;101184.75;5111030;27;20656;-87
2021/10/28 18:27:22;;;;;;;24.13;13.75;;;;;;;11.16;100.00;101182.22;5111671;27;20050;-86
2021/10/28 18:29:48;;;;;;;18.77;12.30;;;;;;;11.13;100.00;101183.38;5130044;27;20251;-85
2021/10/28 18:32:14;;;;;;;17.50;12.57;;;;;;;11.02;100.00;101170.25;5114813;27;20463;-87
2021/10/28 18:34:40;;;;;;;21.50;14.02;;;;;;;11.04;100.00;101170.94;5115402;27;20084;-87
2021/10/28 18:37:06;;;;;;;22.92;13.63;;;;;;;11.07;100.00;101178.63;5118937;27;20026;-85
2021/10/28 18:39:32;;;;;;;;;;;;;;;11.01;100.00;101165.91;5118015;27;20450;-85
2021/10/28 18:41:58;;;;;;;;;;;;;;;11.04;100.00;101164.75;5116600;27;19907;-87
2021/10/28 18:44:27;;;;;;;22.10;13.40;;;;;;;11.02;100.00;101164.91;5098249;27;20352;-87
2021/10/28 18:46:54;;;;;;;22.33;13.10;;;;;;;11.09;100.00;101175.81;5133500;27;20038;-86
2021/10/28 18:49:22;;;;;;;22.65;13.60;;;;;;;11.03;100.00;101152.38;5111980;27;20427;-78
2021/10/28 18:51:48;;;;;;;21.70;14.13;;;;;;;10.95;100.00;101145.16;5129064;27;20046;-87
2021/10/28 18:54:16;;;;;;;;;;;;;;;10.88;100.00;101147.59;5116174;27;20027;-85
2021/10/28 18:56:43;;;;;;;24.38;14.90;;;;;;;10.93;100.00;101149.81;5133788;27;19922;-85
2021/10/28 18:59:09;;;;;;;23.83;13.35;;;;;;;10.87;100.00;101137.91;5101870;27;20015;-85
2021/10/28 19:01:36;;;;;;;28.10;16.02;;;;;;;10.94;100.00;101152.31;5136340;27;20062;-87
2021/10/28 19:04:02;;;;;;;20.27;13.68;;;;;;;10.93;100.00;101139.97;5113019;27;20114;-76
2021/10/28 19:06:28;;;;;;;23.73;15.57;;;;;;;10.97;100.00;101133.31;5126542;27;20408;-78
2021/10/28 19:08:54;;;;;;;25.52;15.07;;;;;;;10.91;100.00;101125.94;5109820;27;20130;-78
2021/10/28 19:11:20;;;;;;;21.05;13.18;;;;;;;10.86;100.00;101128.22;5129769;27;20023;-87